Hurricane, Utah
Current Conditions -  °F | °C
As of 9:35 AM on Saturday 22 Nov 2014 (Local Time) from KSGU Reporting Station
Clear Clear  
Wind Chill: 43°   Ceiling: Unl
Heat Index: 43°   Visibility: 10mi
Dew Point: 21°   Wind: 0mph
Humidity: 42%   Direction: NA
Pressure: 30.11"   Gusts: NA
Location:  37.18°N, 113.29°W
Report Text: KSGU 221635Z AUTO 00000KT 10SM CLR 06/M06 A3011 RMK AO1
Loading
Personal Weather Stations






























Interactive Weather Map New forecast layout! Learn more

10-Day Weather Forecast

Advertisements
Track Severe Weather on mobile